sensor_id;sensor_type;location;lat;lon;timestamp;P1;durP1;ratioP1;P2;durP2;ratioP2
5121;SDS011;2563;52.242;7.956;2022-11-20T00:00:37;42.00;;;15.17;;
5121;SDS011;2563;52.242;7.956;2022-11-20T00:03:03;38.10;;;15.10;;
5121;SDS011;2563;52.242;7.956;2022-11-20T00:05:28;37.27;;;15.03;;
5121;SDS011;2563;52.242;7.956;2022-11-20T00:07:53;33.23;;;13.77;;
5121;SDS011;2563;52.242;7.956;2022-11-20T00:10:19;36.77;;;15.03;;
5121;SDS011;2563;52.242;7.956;2022-11-20T00:12:44;47.40;;;15.83;;
5121;SDS011;2563;52.242;7.956;2022-11-20T00:15:09;40.33;;;15.07;;
5121;SDS011;2563;52.242;7.956;2022-11-20T00:17:35;34.40;;;13.83;;
5121;SDS011;2563;52.242;7.956;2022-11-20T00:20:00;39.77;;;15.03;;
5121;SDS011;2563;52.242;7.956;2022-11-20T00:22:26;34.67;;;14.03;;
5121;SDS011;2563;52.242;7.956;2022-11-20T00:24:51;31.20;;;11.50;;
5121;SDS011;2563;52.242;7.956;2022-11-20T00:27:16;34.07;;;13.67;;
5121;SDS011;2563;52.242;7.956;2022-11-20T00:29:42;38.27;;;14.70;;
5121;SDS011;2563;52.242;7.956;2022-11-20T00:32:07;36.00;;;13.27;;
5121;SDS011;2563;52.242;7.956;2022-11-20T00:34:32;30.00;;;11.80;;
5121;SDS011;2563;52.242;7.956;2022-11-20T00:36:58;30.73;;;12.53;;
5121;SDS011;2563;52.242;7.956;2022-11-20T00:39:23;30.53;;;11.93;;
5121;SDS011;2563;52.242;7.956;2022-11-20T00:41:48;33.30;;;11.90;;
5121;SDS011;2563;52.242;7.956;2022-11-20T00:44:14;33.27;;;11.90;;
5121;SDS011;2563;52.242;7.956;2022-11-20T00:46:39;41.87;;;13.13;;
5121;SDS011;2563;52.242;7.956;2022-11-20T00:49:05;24.80;;;11.40;;
5121;SDS011;2563;52.242;7.956;2022-11-20T00:51:30;32.27;;;12.07;;
5121;SDS011;2563;52.242;7.956;2022-11-20T00:53:56;32.70;;;12.60;;
5121;SDS011;2563;52.242;7.956;2022-11-20T00:56:22;32.00;;;13.33;;
5121;SDS011;2563;52.242;7.956;2022-11-20T00:58:48;32.93;;;14.37;;
5121;SDS011;2563;52.242;7.956;2022-11-20T01:01:15;32.20;;;13.97;;
5121;SDS011;2563;52.242;7.956;2022-11-20T01:03:43;38.27;;;13.10;;
5121;SDS011;2563;52.242;7.956;2022-11-20T01:06:12;33.30;;;12.80;;
5121;SDS011;2563;52.242;7.956;2022-11-20T01:08:39;34.50;;;13.70;;
5121;SDS011;2563;52.242;7.956;2022-11-20T01:11:06;32.40;;;13.57;;
5121;SDS011;2563;52.242;7.956;2022-11-20T01:13:52;28.80;;;12.57;;
5121;SDS011;2563;52.242;7.956;2022-11-20T01:16:21;25.50;;;11.33;;
5121;SDS011;2563;52.242;7.956;2022-11-20T01:18:50;33.40;;;13.47;;
5121;SDS011;2563;52.242;7.956;2022-11-20T01:21:18;30.47;;;12.83;;
5121;SDS011;2563;52.242;7.956;2022-11-20T01:23:46;35.33;;;12.30;;
5121;SDS011;2563;52.242;7.956;2022-11-20T01:26:14;24.33;;;11.10;;
5121;SDS011;2563;52.242;7.956;2022-11-20T01:28:41;32.50;;;11.37;;
5121;SDS011;2563;52.242;7.956;2022-11-20T01:31:27;32.40;;;11.90;;
5121;SDS011;2563;52.242;7.956;2022-11-20T01:33:58;33.63;;;12.63;;
5121;SDS011;2563;52.242;7.956;2022-11-20T01:36:27;33.07;;;12.20;;
5121;SDS011;2563;52.242;7.956;2022-11-20T01:38:54;20.03;;;8.43;;
5121;SDS011;2563;52.242;7.956;2022-11-20T01:41:20;28.20;;;10.90;;
5121;SDS011;2563;52.242;7.956;2022-11-20T01:44:05;28.27;;;10.80;;
5121;SDS011;2563;52.242;7.956;2022-11-20T01:46:31;23.10;;;9.60;;
5121;SDS011;2563;52.242;7.956;2022-11-20T01:49:00;23.60;;;9.40;;
5121;SDS011;2563;52.242;7.956;2022-11-20T01:51:33;24.07;;;9.47;;
5121;SDS011;2563;52.242;7.956;2022-11-20T01:54:23;22.37;;;10.57;;
5121;SDS011;2563;52.242;7.956;2022-11-20T01:56:55;27.83;;;10.17;;
5121;SDS011;2563;52.242;7.956;2022-11-20T01:59:23;25.70;;;10.37;;
5121;SDS011;2563;52.242;7.956;2022-11-20T02:01:51;25.83;;;10.47;;
5121;SDS011;2563;52.242;7.956;2022-11-20T02:04:17;25.97;;;10.20;;
5121;SDS011;2563;52.242;7.956;2022-11-20T02:06:50;26.83;;;10.00;;
5121;SDS011;2563;52.242;7.956;2022-11-20T02:09:24;24.57;;;9.27;;
5121;SDS011;2563;52.242;7.956;2022-11-20T02:11:49;25.83;;;9.90;;
5121;SDS011;2563;52.242;7.956;2022-11-20T02:14:15;27.30;;;9.87;;
5121;SDS011;2563;52.242;7.956;2022-11-20T02:16:43;29.77;;;10.27;;
5121;SDS011;2563;52.242;7.956;2022-11-20T02:19:24;28.70;;;9.47;;
5121;SDS011;2563;52.242;7.956;2022-11-20T02:22:12;22.30;;;8.47;;
5121;SDS011;2563;52.242;7.956;2022-11-20T02:24:42;22.33;;;8.57;;
5121;SDS011;2563;52.242;7.956;2022-11-20T02:27:10;26.47;;;9.53;;
5121;SDS011;2563;52.242;7.956;2022-11-20T02:32:30;19.30;;;9.40;;
5121;SDS011;2563;52.242;7.956;2022-11-20T02:34:58;22.00;;;8.90;;
5121;SDS011;2563;52.242;7.956;2022-11-20T02:37:32;21.37;;;8.70;;
5121;SDS011;2563;52.242;7.956;2022-11-20T02:40:00;20.17;;;10.20;;
5121;SDS011;2563;52.242;7.956;2022-11-20T02:42:26;28.13;;;9.97;;
5121;SDS011;2563;52.242;7.956;2022-11-20T02:44:51;27.63;;;10.80;;
5121;SDS011;2563;52.242;7.956;2022-11-20T02:47:16;23.27;;;11.20;;
5121;SDS011;2563;52.242;7.956;2022-11-20T02:49:42;27.10;;;10.90;;
5121;SDS011;2563;52.242;7.956;2022-11-20T02:52:07;24.73;;;11.30;;
5121;SDS011;2563;52.242;7.956;2022-11-20T02:54:32;26.33;;;10.73;;
5121;SDS011;2563;52.242;7.956;2022-11-20T02:56:58;28.60;;;10.67;;
5121;SDS011;2563;52.242;7.956;2022-11-20T02:59:23;29.13;;;10.23;;
5121;SDS011;2563;52.242;7.956;2022-11-20T03:01:49;33.10;;;11.83;;
5121;SDS011;2563;52.242;7.956;2022-11-20T03:04:14;36.77;;;11.90;;
5121;SDS011;2563;52.242;7.956;2022-11-20T03:06:39;25.03;;;9.50;;
5121;SDS011;2563;52.242;7.956;2022-11-20T03:09:05;26.13;;;11.23;;
5121;SDS011;2563;52.242;7.956;2022-11-20T03:11:30;24.90;;;9.77;;
5121;SDS011;2563;52.242;7.956;2022-11-20T03:13:55;25.20;;;9.20;;
5121;SDS011;2563;52.242;7.956;2022-11-20T03:16:21;24.63;;;9.07;;
5121;SDS011;2563;52.242;7.956;2022-11-20T03:18:48;26.27;;;9.97;;
5121;SDS011;2563;52.242;7.956;2022-11-20T03:21:14;31.27;;;9.20;;
5121;SDS011;2563;52.242;7.956;2022-11-20T03:23:40;21.13;;;8.40;;
5121;SDS011;2563;52.242;7.956;2022-11-20T03:26:10;21.80;;;9.10;;
5121;SDS011;2563;52.242;7.956;2022-11-20T03:28:37;24.03;;;8.50;;
5121;SDS011;2563;52.242;7.956;2022-11-20T03:31:09;24.90;;;9.10;;
5121;SDS011;2563;52.242;7.956;2022-11-20T03:33:36;23.20;;;8.90;;
5121;SDS011;2563;52.242;7.956;2022-11-20T03:36:03;21.30;;;8.80;;
5121;SDS011;2563;52.242;7.956;2022-11-20T03:38:30;25.07;;;8.37;;
5121;SDS011;2563;52.242;7.956;2022-11-20T03:41:03;19.27;;;8.20;;
5121;SDS011;2563;52.242;7.956;2022-11-20T03:43:30;25.97;;;9.77;;
5121;SDS011;2563;52.242;7.956;2022-11-20T03:45:56;20.30;;;8.00;;
5121;SDS011;2563;52.242;7.956;2022-11-20T03:48:22;18.30;;;8.33;;
5121;SDS011;2563;52.242;7.956;2022-11-20T03:50:47;24.03;;;8.20;;
5121;SDS011;2563;52.242;7.956;2022-11-20T03:53:13;18.53;;;7.20;;
5121;SDS011;2563;52.242;7.956;2022-11-20T03:55:39;17.37;;;7.60;;
5121;SDS011;2563;52.242;7.956;2022-11-20T03:58:05;20.10;;;8.77;;
5121;SDS011;2563;52.242;7.956;2022-11-20T04:00:30;19.50;;;7.87;;
5121;SDS011;2563;52.242;7.956;2022-11-20T04:02:58;20.10;;;7.17;;
5121;SDS011;2563;52.242;7.956;2022-11-20T04:05:24;18.40;;;7.40;;
5121;SDS011;2563;52.242;7.956;2022-11-20T04:07:50;17.63;;;5.70;;
5121;SDS011;2563;52.242;7.956;2022-11-20T04:10:16;15.53;;;7.13;;
5121;SDS011;2563;52.242;7.956;2022-11-20T04:12:41;22.10;;;7.73;;
5121;SDS011;2563;52.242;7.956;2022-11-20T04:15:06;19.30;;;7.00;;
5121;SDS011;2563;52.242;7.956;2022-11-20T04:17:32;19.10;;;6.73;;
5121;SDS011;2563;52.242;7.956;2022-11-20T04:19:57;14.40;;;6.40;;
5121;SDS011;2563;52.242;7.956;2022-11-20T04:22:23;19.27;;;7.10;;
5121;SDS011;2563;52.242;7.956;2022-11-20T04:24:48;17.87;;;7.00;;
5121;SDS011;2563;52.242;7.956;2022-11-20T04:27:13;16.50;;;7.27;;
5121;SDS011;2563;52.242;7.956;2022-11-20T04:29:39;21.30;;;7.37;;
5121;SDS011;2563;52.242;7.956;2022-11-20T04:32:04;18.23;;;6.23;;
5121;SDS011;2563;52.242;7.956;2022-11-20T04:34:30;17.93;;;7.13;;
5121;SDS011;2563;52.242;7.956;2022-11-20T04:36:55;17.27;;;7.27;;
5121;SDS011;2563;52.242;7.956;2022-11-20T04:39:20;16.20;;;6.30;;
5121;SDS011;2563;52.242;7.956;2022-11-20T04:41:46;23.63;;;6.97;;
5121;SDS011;2563;52.242;7.956;2022-11-20T04:44:11;18.53;;;7.33;;
5121;SDS011;2563;52.242;7.956;2022-11-20T04:46:38;20.87;;;6.23;;
5121;SDS011;2563;52.242;7.956;2022-11-20T04:49:04;12.60;;;5.47;;
5121;SDS011;2563;52.242;7.956;2022-11-20T04:51:30;13.53;;;6.53;;
5121;SDS011;2563;52.242;7.956;2022-11-20T04:53:56;21.23;;;5.60;;
5121;SDS011;2563;52.242;7.956;2022-11-20T04:56:22;15.30;;;5.60;;
5121;SDS011;2563;52.242;7.956;2022-11-20T04:58:48;16.00;;;5.87;;
5121;SDS011;2563;52.242;7.956;2022-11-20T05:01:14;15.77;;;5.30;;
5121;SDS011;2563;52.242;7.956;2022-11-20T05:03:42;13.77;;;5.57;;
5121;SDS011;2563;52.242;7.956;2022-11-20T05:06:09;15.90;;;6.00;;
5121;SDS011;2563;52.242;7.956;2022-11-20T05:08:36;11.83;;;5.30;;
5121;SDS011;2563;52.242;7.956;2022-11-20T05:11:06;15.77;;;5.87;;
5121;SDS011;2563;52.242;7.956;2022-11-20T05:13:32;14.47;;;5.27;;
5121;SDS011;2563;52.242;7.956;2022-11-20T05:16:17;14.30;;;5.60;;
5121;SDS011;2563;52.242;7.956;2022-11-20T05:18:44;17.43;;;5.73;;
5121;SDS011;2563;52.242;7.956;2022-11-20T05:21:10;12.90;;;5.50;;
5121;SDS011;2563;52.242;7.956;2022-11-20T05:23:36;13.27;;;5.67;;
5121;SDS011;2563;52.242;7.956;2022-11-20T05:26:03;21.80;;;6.60;;
5121;SDS011;2563;52.242;7.956;2022-11-20T05:28:29;13.80;;;5.70;;
5121;SDS011;2563;52.242;7.956;2022-11-20T05:31:03;18.10;;;6.70;;
5121;SDS011;2563;52.242;7.956;2022-11-20T05:33:29;20.80;;;5.30;;
5121;SDS011;2563;52.242;7.956;2022-11-20T05:35:57;14.73;;;5.37;;
5121;SDS011;2563;52.242;7.956;2022-11-20T05:38:23;13.47;;;4.60;;
5121;SDS011;2563;52.242;7.956;2022-11-20T05:40:48;19.70;;;5.57;;
5121;SDS011;2563;52.242;7.956;2022-11-20T05:43:14;12.57;;;4.90;;
5121;SDS011;2563;52.242;7.956;2022-11-20T05:45:39;24.17;;;5.70;;
5121;SDS011;2563;52.242;7.956;2022-11-20T05:48:04;20.67;;;6.07;;
5121;SDS011;2563;52.242;7.956;2022-11-20T05:50:30;13.80;;;5.40;;
5121;SDS011;2563;52.242;7.956;2022-11-20T05:52:57;12.43;;;5.07;;
5121;SDS011;2563;52.242;7.956;2022-11-20T05:55:24;17.67;;;4.90;;
5121;SDS011;2563;52.242;7.956;2022-11-20T05:57:50;16.40;;;6.47;;
5121;SDS011;2563;52.242;7.956;2022-11-20T06:00:18;17.10;;;5.90;;
5121;SDS011;2563;52.242;7.956;2022-11-20T06:02:43;12.33;;;5.00;;
5121;SDS011;2563;52.242;7.956;2022-11-20T06:05:09;15.77;;;5.27;;
5121;SDS011;2563;52.242;7.956;2022-11-20T06:07:34;11.40;;;4.47;;
5121;SDS011;2563;52.242;7.956;2022-11-20T06:10:00;14.50;;;4.93;;
5121;SDS011;2563;52.242;7.956;2022-11-20T06:12:25;15.53;;;5.30;;
5121;SDS011;2563;52.242;7.956;2022-11-20T06:14:50;37.73;;;5.47;;
5121;SDS011;2563;52.242;7.956;2022-11-20T06:17:16;13.53;;;3.90;;
5121;SDS011;2563;52.242;7.956;2022-11-20T06:19:41;8.50;;;3.40;;
5121;SDS011;2563;52.242;7.956;2022-11-20T06:22:06;10.97;;;4.13;;
5121;SDS011;2563;52.242;7.956;2022-11-20T06:24:32;9.60;;;3.70;;
5121;SDS011;2563;52.242;7.956;2022-11-20T06:26:57;12.50;;;5.10;;
5121;SDS011;2563;52.242;7.956;2022-11-20T06:29:22;13.17;;;4.50;;
5121;SDS011;2563;52.242;7.956;2022-11-20T06:31:48;10.27;;;4.00;;
5121;SDS011;2563;52.242;7.956;2022-11-20T06:34:13;12.63;;;5.20;;
5121;SDS011;2563;52.242;7.956;2022-11-20T06:36:39;9.47;;;4.17;;
5121;SDS011;2563;52.242;7.956;2022-11-20T06:39:04;12.27;;;4.90;;
5121;SDS011;2563;52.242;7.956;2022-11-20T06:41:29;10.83;;;4.03;;
5121;SDS011;2563;52.242;7.956;2022-11-20T06:43:55;9.50;;;3.60;;
5121;SDS011;2563;52.242;7.956;2022-11-20T06:46:20;12.10;;;4.53;;
5121;SDS011;2563;52.242;7.956;2022-11-20T06:48:46;12.50;;;3.97;;
5121;SDS011;2563;52.242;7.956;2022-11-20T06:51:12;13.67;;;4.30;;
5121;SDS011;2563;52.242;7.956;2022-11-20T06:53:38;7.67;;;3.23;;
5121;SDS011;2563;52.242;7.956;2022-11-20T06:56:03;11.07;;;3.83;;
5121;SDS011;2563;52.242;7.956;2022-11-20T06:58:30;18.83;;;5.00;;
5121;SDS011;2563;52.242;7.956;2022-11-20T07:00:58;12.30;;;4.70;;
5121;SDS011;2563;52.242;7.956;2022-11-20T07:03:28;12.97;;;4.53;;
5121;SDS011;2563;52.242;7.956;2022-11-20T07:05:57;14.73;;;5.37;;
5121;SDS011;2563;52.242;7.956;2022-11-20T07:08:23;9.50;;;4.30;;
5121;SDS011;2563;52.242;7.956;2022-11-20T07:10:49;18.53;;;5.70;;
5121;SDS011;2563;52.242;7.956;2022-11-20T07:13:15;15.60;;;5.90;;
5121;SDS011;2563;52.242;7.956;2022-11-20T07:15:40;13.67;;;4.73;;
5121;SDS011;2563;52.242;7.956;2022-11-20T07:18:05;11.27;;;4.40;;
5121;SDS011;2563;52.242;7.956;2022-11-20T07:20:31;18.23;;;4.33;;
5121;SDS011;2563;52.242;7.956;2022-11-20T07:22:56;11.97;;;3.80;;
5121;SDS011;2563;52.242;7.956;2022-11-20T07:25:23;14.03;;;4.53;;
5121;SDS011;2563;52.242;7.956;2022-11-20T07:27:48;16.40;;;5.13;;
5121;SDS011;2563;52.242;7.956;2022-11-20T07:30:14;11.93;;;5.10;;
5121;SDS011;2563;52.242;7.956;2022-11-20T07:32:40;11.90;;;4.60;;
5121;SDS011;2563;52.242;7.956;2022-11-20T07:35:06;12.07;;;4.33;;
5121;SDS011;2563;52.242;7.956;2022-11-20T07:37:34;18.80;;;5.83;;
5121;SDS011;2563;52.242;7.956;2022-11-20T07:39:59;15.63;;;6.47;;
5121;SDS011;2563;52.242;7.956;2022-11-20T07:42:25;18.30;;;6.40;;
5121;SDS011;2563;52.242;7.956;2022-11-20T07:44:50;19.27;;;7.43;;
5121;SDS011;2563;52.242;7.956;2022-11-20T07:47:18;16.23;;;7.20;;
5121;SDS011;2563;52.242;7.956;2022-11-20T07:49:44;18.87;;;7.80;;
5121;SDS011;2563;52.242;7.956;2022-11-20T07:52:09;16.90;;;8.17;;
5121;SDS011;2563;52.242;7.956;2022-11-20T07:54:34;20.97;;;8.70;;
5121;SDS011;2563;52.242;7.956;2022-11-20T07:57:00;23.90;;;10.07;;
5121;SDS011;2563;52.242;7.956;2022-11-20T07:59:25;24.80;;;11.10;;
5121;SDS011;2563;52.242;7.956;2022-11-20T08:01:50;24.83;;;10.37;;
5121;SDS011;2563;52.242;7.956;2022-11-20T08:04:16;28.67;;;10.30;;
5121;SDS011;2563;52.242;7.956;2022-11-20T08:06:41;25.60;;;10.13;;
5121;SDS011;2563;52.242;7.956;2022-11-20T08:09:07;21.07;;;9.53;;
5121;SDS011;2563;52.242;7.956;2022-11-20T08:11:32;31.83;;;12.73;;
5121;SDS011;2563;52.242;7.956;2022-11-20T08:14:16;25.43;;;10.03;;
5121;SDS011;2563;52.242;7.956;2022-11-20T08:16:43;21.13;;;9.63;;
5121;SDS011;2563;52.242;7.956;2022-11-20T08:19:11;24.50;;;9.03;;
5121;SDS011;2563;52.242;7.956;2022-11-20T08:21:38;23.20;;;10.97;;
5121;SDS011;2563;52.242;7.956;2022-11-20T08:24:04;22.10;;;9.90;;
5121;SDS011;2563;52.242;7.956;2022-11-20T08:26:30;23.37;;;10.20;;
5121;SDS011;2563;52.242;7.956;2022-11-20T08:28:56;28.30;;;11.83;;
5121;SDS011;2563;52.242;7.956;2022-11-20T08:31:23;24.93;;;11.57;;
5121;SDS011;2563;52.242;7.956;2022-11-20T08:33:49;24.43;;;9.57;;
5121;SDS011;2563;52.242;7.956;2022-11-20T08:36:15;27.10;;;9.90;;
5121;SDS011;2563;52.242;7.956;2022-11-20T08:38:40;27.80;;;11.10;;
5121;SDS011;2563;52.242;7.956;2022-11-20T08:41:06;24.73;;;9.20;;
5121;SDS011;2563;52.242;7.956;2022-11-20T08:43:50;25.40;;;9.57;;
5121;SDS011;2563;52.242;7.956;2022-11-20T08:46:17;24.20;;;9.90;;
5121;SDS011;2563;52.242;7.956;2022-11-20T08:48:43;26.43;;;10.13;;
5121;SDS011;2563;52.242;7.956;2022-11-20T08:51:09;21.67;;;9.67;;
5121;SDS011;2563;52.242;7.956;2022-11-20T08:53:35;25.63;;;9.07;;
5121;SDS011;2563;52.242;7.956;2022-11-20T08:56:01;23.50;;;9.17;;
5121;SDS011;2563;52.242;7.956;2022-11-20T08:58:27;23.57;;;9.57;;
5121;SDS011;2563;52.242;7.956;2022-11-20T09:00:52;26.40;;;10.00;;
5121;SDS011;2563;52.242;7.956;2022-11-20T09:03:18;22.70;;;9.60;;
5121;SDS011;2563;52.242;7.956;2022-11-20T09:05:44;17.87;;;8.57;;
5121;SDS011;2563;52.242;7.956;2022-11-20T09:08:10;24.90;;;8.87;;
5121;SDS011;2563;52.242;7.956;2022-11-20T09:10:35;24.20;;;9.40;;
5121;SDS011;2563;52.242;7.956;2022-11-20T09:13:01;30.10;;;10.27;;
5121;SDS011;2563;52.242;7.956;2022-11-20T09:15:27;24.63;;;9.50;;
5121;SDS011;2563;52.242;7.956;2022-11-20T09:17:53;23.63;;;9.00;;
5121;SDS011;2563;52.242;7.956;2022-11-20T09:20:20;33.80;;;11.70;;
5121;SDS011;2563;52.242;7.956;2022-11-20T09:22:46;30.40;;;10.23;;
5121;SDS011;2563;52.242;7.956;2022-11-20T09:25:12;37.87;;;13.17;;
5121;SDS011;2563;52.242;7.956;2022-11-20T09:27:37;32.87;;;10.67;;
5121;SDS011;2563;52.242;7.956;2022-11-20T09:30:03;32.23;;;11.53;;
5121;SDS011;2563;52.242;7.956;2022-11-20T09:32:29;37.60;;;12.20;;
5121;SDS011;2563;52.242;7.956;2022-11-20T09:34:54;35.37;;;12.73;;
5121;SDS011;2563;52.242;7.956;2022-11-20T09:37:20;34.47;;;10.93;;
5121;SDS011;2563;52.242;7.956;2022-11-20T09:39:46;36.93;;;12.57;;
5121;SDS011;2563;52.242;7.956;2022-11-20T09:47:26;45.57;;;14.87;;
5121;SDS011;2563;52.242;7.956;2022-11-20T09:52:48;29.13;;;11.67;;
5121;SDS011;2563;52.242;7.956;2022-11-20T09:55:38;37.37;;;12.03;;
5121;SDS011;2563;52.242;7.956;2022-11-20T09:58:07;35.10;;;12.50;;
5121;SDS011;2563;52.242;7.956;2022-11-20T10:00:49;30.80;;;11.00;;
5121;SDS011;2563;52.242;7.956;2022-11-20T10:03:19;33.33;;;10.93;;
5121;SDS011;2563;52.242;7.956;2022-11-20T10:05:56;51.13;;;14.87;;
5121;SDS011;2563;52.242;7.956;2022-11-20T10:16:58;30.90;;;11.40;;
5121;SDS011;2563;52.242;7.956;2022-11-20T10:30:07;36.30;;;12.97;;
5121;SDS011;2563;52.242;7.956;2022-11-20T10:32:42;40.23;;;12.40;;
5121;SDS011;2563;52.242;7.956;2022-11-20T10:37:43;39.83;;;14.37;;
5121;SDS011;2563;52.242;7.956;2022-11-20T10:42:57;35.67;;;13.53;;
5121;SDS011;2563;52.242;7.956;2022-11-20T10:47:55;38.97;;;12.90;;
5121;SDS011;2563;52.242;7.956;2022-11-20T10:50:43;34.43;;;12.97;;
5121;SDS011;2563;52.242;7.956;2022-11-20T11:01:40;40.07;;;12.17;;
5121;SDS011;2563;52.242;7.956;2022-11-20T11:09:46;36.33;;;13.10;;
5121;SDS011;2563;52.242;7.956;2022-11-20T11:12:15;28.53;;;11.00;;
5121;SDS011;2563;52.242;7.956;2022-11-20T11:14:50;29.90;;;12.37;;
5121;SDS011;2563;52.242;7.956;2022-11-20T11:17:21;26.43;;;10.27;;
5121;SDS011;2563;52.242;7.956;2022-11-20T11:20:01;24.97;;;10.40;;
5121;SDS011;2563;52.242;7.956;2022-11-20T11:22:30;26.80;;;9.97;;
5121;SDS011;2563;52.242;7.956;2022-11-20T11:24:57;26.67;;;9.67;;
5121;SDS011;2563;52.242;7.956;2022-11-20T11:27:23;29.20;;;10.00;;
5121;SDS011;2563;52.242;7.956;2022-11-20T11:29:49;30.00;;;11.50;;
5121;SDS011;2563;52.242;7.956;2022-11-20T11:32:15;32.57;;;12.67;;
5121;SDS011;2563;52.242;7.956;2022-11-20T11:34:43;24.70;;;10.23;;
5121;SDS011;2563;52.242;7.956;2022-11-20T11:37:17;30.50;;;11.80;;
5121;SDS011;2563;52.242;7.956;2022-11-20T11:39:46;27.43;;;11.30;;
5121;SDS011;2563;52.242;7.956;2022-11-20T11:42:15;25.57;;;10.50;;
5121;SDS011;2563;52.242;7.956;2022-11-20T11:44:44;25.63;;;10.50;;
5121;SDS011;2563;52.242;7.956;2022-11-20T11:47:37;30.93;;;12.37;;
5121;SDS011;2563;52.242;7.956;2022-11-20T12:01:29;25.00;;;10.40;;
5121;SDS011;2563;52.242;7.956;2022-11-20T12:06:45;35.50;;;13.20;;
5121;SDS011;2563;52.242;7.956;2022-11-20T12:09:15;33.43;;;13.00;;
5121;SDS011;2563;52.242;7.956;2022-11-20T12:11:46;38.70;;;13.20;;
5121;SDS011;2563;52.242;7.956;2022-11-20T12:16:54;28.27;;;12.43;;
5121;SDS011;2563;52.242;7.956;2022-11-20T12:19:21;38.43;;;14.30;;
5121;SDS011;2563;52.242;7.956;2022-11-20T12:24:38;35.13;;;14.87;;
5121;SDS011;2563;52.242;7.956;2022-11-20T12:34:52;28.70;;;13.70;;
5121;SDS011;2563;52.242;7.956;2022-11-20T12:40:27;32.33;;;14.13;;
5121;SDS011;2563;52.242;7.956;2022-11-20T12:54:01;35.90;;;15.33;;
5121;SDS011;2563;52.242;7.956;2022-11-20T13:02:25;26.73;;;13.93;;
5121;SDS011;2563;52.242;7.956;2022-11-20T13:07:54;26.63;;;12.53;;
5121;SDS011;2563;52.242;7.956;2022-11-20T13:10:29;33.93;;;14.20;;
5121;SDS011;2563;52.242;7.956;2022-11-20T13:12:58;30.17;;;13.03;;
5121;SDS011;2563;52.242;7.956;2022-11-20T13:15:44;26.20;;;12.43;;
5121;SDS011;2563;52.242;7.956;2022-11-20T13:18:29;30.13;;;14.27;;
5121;SDS011;2563;52.242;7.956;2022-11-20T13:21:12;27.53;;;13.43;;
5121;SDS011;2563;52.242;7.956;2022-11-20T13:23:39;27.20;;;12.60;;
5121;SDS011;2563;52.242;7.956;2022-11-20T13:26:05;29.13;;;13.37;;
5121;SDS011;2563;52.242;7.956;2022-11-20T13:28:38;29.00;;;13.07;;
5121;SDS011;2563;52.242;7.956;2022-11-20T13:31:09;28.97;;;13.20;;
5121;SDS011;2563;52.242;7.956;2022-11-20T13:33:57;23.87;;;12.17;;
5121;SDS011;2563;52.242;7.956;2022-11-20T13:36:25;30.63;;;13.27;;
5121;SDS011;2563;52.242;7.956;2022-11-20T13:38:53;27.47;;;12.87;;
5121;SDS011;2563;52.242;7.956;2022-11-20T13:41:33;32.43;;;12.47;;
5121;SDS011;2563;52.242;7.956;2022-11-20T13:46:38;20.73;;;11.00;;
5121;SDS011;2563;52.242;7.956;2022-11-20T13:49:09;31.77;;;13.10;;
5121;SDS011;2563;52.242;7.956;2022-11-20T13:51:43;30.77;;;13.47;;
5121;SDS011;2563;52.242;7.956;2022-11-20T14:00:20;30.40;;;14.17;;
5121;SDS011;2563;52.242;7.956;2022-11-20T14:03:32;32.80;;;14.43;;
5121;SDS011;2563;52.242;7.956;2022-11-20T14:05:49;33.73;;;14.20;;
5121;SDS011;2563;52.242;7.956;2022-11-20T14:08:47;28.67;;;13.53;;
5121;SDS011;2563;52.242;7.956;2022-11-20T14:14:02;30.70;;;13.57;;
5121;SDS011;2563;52.242;7.956;2022-11-20T14:16:46;25.40;;;11.37;;
5121;SDS011;2563;52.242;7.956;2022-11-20T14:21:44;24.57;;;11.17;;
5121;SDS011;2563;52.242;7.956;2022-11-20T14:24:10;22.60;;;11.13;;
5121;SDS011;2563;52.242;7.956;2022-11-20T14:26:37;23.77;;;11.63;;
5121;SDS011;2563;52.242;7.956;2022-11-20T14:29:13;26.57;;;11.27;;
5121;SDS011;2563;52.242;7.956;2022-11-20T14:31:41;25.90;;;10.70;;
5121;SDS011;2563;52.242;7.956;2022-11-20T14:34:24;24.83;;;11.10;;
5121;SDS011;2563;52.242;7.956;2022-11-20T14:36:52;66.90;;;25.53;;
5121;SDS011;2563;52.242;7.956;2022-11-20T14:39:22;49.50;;;20.17;;
5121;SDS011;2563;52.242;7.956;2022-11-20T14:41:53;29.53;;;13.17;;
5121;SDS011;2563;52.242;7.956;2022-11-20T14:44:36;25.10;;;11.83;;
5121;SDS011;2563;52.242;7.956;2022-11-20T14:47:02;30.60;;;12.13;;
5121;SDS011;2563;52.242;7.956;2022-11-20T14:49:29;26.17;;;12.50;;
5121;SDS011;2563;52.242;7.956;2022-11-20T14:52:10;28.33;;;12.90;;
5121;SDS011;2563;52.242;7.956;2022-11-20T14:54:47;29.40;;;13.63;;
5121;SDS011;2563;52.242;7.956;2022-11-20T14:57:20;26.93;;;12.50;;
5121;SDS011;2563;52.242;7.956;2022-11-20T14:59:49;26.43;;;12.07;;
5121;SDS011;2563;52.242;7.956;2022-11-20T15:02:14;27.03;;;12.00;;
5121;SDS011;2563;52.242;7.956;2022-11-20T15:04:50;25.47;;;11.20;;
5121;SDS011;2563;52.242;7.956;2022-11-20T15:07:26;25.87;;;11.93;;
5121;SDS011;2563;52.242;7.956;2022-11-20T15:12:28;24.40;;;12.10;;
5121;SDS011;2563;52.242;7.956;2022-11-20T15:14:55;27.33;;;12.97;;
5121;SDS011;2563;52.242;7.956;2022-11-20T15:17:20;24.53;;;11.10;;
5121;SDS011;2563;52.242;7.956;2022-11-20T15:19:46;28.20;;;12.53;;
5121;SDS011;2563;52.242;7.956;2022-11-20T15:22:12;34.40;;;16.20;;
5121;SDS011;2563;52.242;7.956;2022-11-20T15:24:44;37.13;;;17.00;;
5121;SDS011;2563;52.242;7.956;2022-11-20T15:27:10;30.60;;;14.43;;
5121;SDS011;2563;52.242;7.956;2022-11-20T15:29:35;33.10;;;13.10;;
5121;SDS011;2563;52.242;7.956;2022-11-20T15:32:01;29.30;;;10.50;;
5121;SDS011;2563;52.242;7.956;2022-11-20T15:34:27;19.70;;;9.10;;
5121;SDS011;2563;52.242;7.956;2022-11-20T15:36:53;25.30;;;10.30;;
5121;SDS011;2563;52.242;7.956;2022-11-20T15:39:19;23.70;;;11.00;;
5121;SDS011;2563;52.242;7.956;2022-11-20T15:41:45;21.00;;;9.90;;
5121;SDS011;2563;52.242;7.956;2022-11-20T15:44:11;35.27;;;16.50;;
5121;SDS011;2563;52.242;7.956;2022-11-20T15:46:37;28.10;;;12.20;;
5121;SDS011;2563;52.242;7.956;2022-11-20T15:49:10;30.13;;;12.30;;
5121;SDS011;2563;52.242;7.956;2022-11-20T15:51:39;27.37;;;12.20;;
5121;SDS011;2563;52.242;7.956;2022-11-20T15:54:15;24.50;;;11.17;;
5121;SDS011;2563;52.242;7.956;2022-11-20T15:56:47;32.23;;;14.33;;
5121;SDS011;2563;52.242;7.956;2022-11-20T15:59:14;35.10;;;14.20;;
5121;SDS011;2563;52.242;7.956;2022-11-20T16:01:40;31.00;;;14.83;;
5121;SDS011;2563;52.242;7.956;2022-11-20T16:04:15;70.83;;;33.87;;
5121;SDS011;2563;52.242;7.956;2022-11-20T16:06:41;31.20;;;16.20;;
5121;SDS011;2563;52.242;7.956;2022-11-20T16:09:07;48.47;;;22.17;;
5121;SDS011;2563;52.242;7.956;2022-11-20T16:11:33;108.63;;;43.83;;
5121;SDS011;2563;52.242;7.956;2022-11-20T16:14:03;65.23;;;30.87;;
5121;SDS011;2563;52.242;7.956;2022-11-20T16:16:47;141.03;;;52.40;;
5121;SDS011;2563;52.242;7.956;2022-11-20T16:19:13;94.57;;;36.30;;
5121;SDS011;2563;52.242;7.956;2022-11-20T16:21:39;46.50;;;22.37;;
5121;SDS011;2563;52.242;7.956;2022-11-20T16:24:06;30.20;;;14.60;;
5121;SDS011;2563;52.242;7.956;2022-11-20T16:26:34;29.33;;;12.53;;
5121;SDS011;2563;52.242;7.956;2022-11-20T16:29:00;31.77;;;13.40;;
5121;SDS011;2563;52.242;7.956;2022-11-20T16:31:27;32.43;;;14.77;;
5121;SDS011;2563;52.242;7.956;2022-11-20T16:33:54;30.90;;;13.23;;
5121;SDS011;2563;52.242;7.956;2022-11-20T16:36:22;27.87;;;12.53;;
5121;SDS011;2563;52.242;7.956;2022-11-20T16:38:52;27.13;;;11.73;;
5121;SDS011;2563;52.242;7.956;2022-11-20T16:41:18;25.43;;;11.73;;
5121;SDS011;2563;52.242;7.956;2022-11-20T16:43:51;26.37;;;11.60;;
5121;SDS011;2563;52.242;7.956;2022-11-20T16:46:24;29.70;;;12.90;;
5121;SDS011;2563;52.242;7.956;2022-11-20T16:51:24;26.93;;;13.77;;
5121;SDS011;2563;52.242;7.956;2022-11-20T16:53:50;33.23;;;15.10;;
5121;SDS011;2563;52.242;7.956;2022-11-20T16:56:18;27.73;;;13.63;;
5121;SDS011;2563;52.242;7.956;2022-11-20T16:58:44;31.37;;;13.70;;
5121;SDS011;2563;52.242;7.956;2022-11-20T17:01:12;27.60;;;12.70;;